sensor_id;sensor_type;location;lat;lon;timestamp;P1;durP1;ratioP1;P2;durP2;ratioP2
5674;SDS011;2860;54.284;10.158;2023-04-23T00:00:51;15.18;;;13.65;;
5674;SDS011;2860;54.284;10.158;2023-04-23T00:03:18;14.02;;;12.85;;
5674;SDS011;2860;54.284;10.158;2023-04-23T00:05:46;19.52;;;15.27;;
5674;SDS011;2860;54.284;10.158;2023-04-23T00:08:14;14.85;;;13.52;;
5674;SDS011;2860;54.284;10.158;2023-04-23T00:10:42;15.38;;;14.18;;
5674;SDS011;2860;54.284;10.158;2023-04-23T00:13:08;14.63;;;13.32;;
5674;SDS011;2860;54.284;10.158;2023-04-23T00:15:34;14.93;;;13.60;;
5674;SDS011;2860;54.284;10.158;2023-04-23T00:17:59;14.30;;;13.00;;
5674;SDS011;2860;54.284;10.158;2023-04-23T00:20:25;14.95;;;13.65;;
5674;SDS011;2860;54.284;10.158;2023-04-23T00:22:50;14.55;;;13.23;;
5674;SDS011;2860;54.284;10.158;2023-04-23T00:25:16;16.20;;;13.90;;
5674;SDS011;2860;54.284;10.158;2023-04-23T00:27:42;15.25;;;13.95;;
5674;SDS011;2860;54.284;10.158;2023-04-23T00:30:07;14.27;;;12.98;;
5674;SDS011;2860;54.284;10.158;2023-04-23T00:32:33;14.02;;;12.77;;
5674;SDS011;2860;54.284;10.158;2023-04-23T00:34:59;14.00;;;12.70;;
5674;SDS011;2860;54.284;10.158;2023-04-23T00:37:25;14.80;;;13.05;;
5674;SDS011;2860;54.284;10.158;2023-04-23T00:39:50;13.27;;;12.02;;
5674;SDS011;2860;54.284;10.158;2023-04-23T00:42:16;14.18;;;12.88;;
5674;SDS011;2860;54.284;10.158;2023-04-23T00:44:42;14.02;;;12.63;;
5674;SDS011;2860;54.284;10.158;2023-04-23T00:47:07;12.27;;;11.27;;
5674;SDS011;2860;54.284;10.158;2023-04-23T00:49:34;12.82;;;11.82;;
5674;SDS011;2860;54.284;10.158;2023-04-23T00:52:00;13.52;;;12.23;;
5674;SDS011;2860;54.284;10.158;2023-04-23T00:54:26;12.45;;;11.27;;
5674;SDS011;2860;54.284;10.158;2023-04-23T00:56:52;13.48;;;12.23;;
5674;SDS011;2860;54.284;10.158;2023-04-23T00:59:19;13.07;;;11.98;;
5674;SDS011;2860;54.284;10.158;2023-04-23T01:01:45;14.40;;;13.00;;
5674;SDS011;2860;54.284;10.158;2023-04-23T01:04:12;13.68;;;12.27;;
5674;SDS011;2860;54.284;10.158;2023-04-23T01:06:40;14.93;;;13.57;;
5674;SDS011;2860;54.284;10.158;2023-04-23T01:09:06;13.60;;;12.45;;
5674;SDS011;2860;54.284;10.158;2023-04-23T01:11:33;16.40;;;14.70;;
5674;SDS011;2860;54.284;10.158;2023-04-23T01:14:01;15.80;;;14.35;;
5674;SDS011;2860;54.284;10.158;2023-04-23T01:16:27;15.43;;;14.13;;
5674;SDS011;2860;54.284;10.158;2023-04-23T01:18:53;15.98;;;14.57;;
5674;SDS011;2860;54.284;10.158;2023-04-23T01:21:20;15.98;;;14.52;;
5674;SDS011;2860;54.284;10.158;2023-04-23T01:23:47;16.13;;;14.35;;
5674;SDS011;2860;54.284;10.158;2023-04-23T01:26:13;16.35;;;14.75;;
5674;SDS011;2860;54.284;10.158;2023-04-23T01:28:39;18.88;;;17.08;;
5674;SDS011;2860;54.284;10.158;2023-04-23T01:31:06;16.95;;;15.23;;
5674;SDS011;2860;54.284;10.158;2023-04-23T01:33:32;18.15;;;16.30;;
5674;SDS011;2860;54.284;10.158;2023-04-23T01:35:58;18.70;;;16.90;;
5674;SDS011;2860;54.284;10.158;2023-04-23T01:38:24;16.25;;;14.85;;
5674;SDS011;2860;54.284;10.158;2023-04-23T01:40:52;17.38;;;15.70;;
5674;SDS011;2860;54.284;10.158;2023-04-23T01:43:18;15.48;;;14.15;;
5674;SDS011;2860;54.284;10.158;2023-04-23T01:45:44;17.25;;;15.85;;
5674;SDS011;2860;54.284;10.158;2023-04-23T01:48:10;16.27;;;14.93;;
5674;SDS011;2860;54.284;10.158;2023-04-23T01:50:36;16.83;;;15.30;;
5674;SDS011;2860;54.284;10.158;2023-04-23T01:53:03;17.38;;;15.57;;
5674;SDS011;2860;54.284;10.158;2023-04-23T01:55:28;18.13;;;16.38;;
5674;SDS011;2860;54.284;10.158;2023-04-23T01:57:55;16.83;;;15.32;;
5674;SDS011;2860;54.284;10.158;2023-04-23T02:00:20;16.80;;;15.30;;
5674;SDS011;2860;54.284;10.158;2023-04-23T02:02:46;17.52;;;16.02;;
5674;SDS011;2860;54.284;10.158;2023-04-23T02:05:16;19.70;;;17.63;;
5674;SDS011;2860;54.284;10.158;2023-04-23T02:07:43;22.95;;;20.65;;
5674;SDS011;2860;54.284;10.158;2023-04-23T02:10:09;26.17;;;23.60;;
5674;SDS011;2860;54.284;10.158;2023-04-23T02:12:35;30.00;;;26.35;;
5674;SDS011;2860;54.284;10.158;2023-04-23T02:15:01;28.65;;;25.65;;
5674;SDS011;2860;54.284;10.158;2023-04-23T02:17:28;37.00;;;30.92;;
5674;SDS011;2860;54.284;10.158;2023-04-23T02:19:53;35.17;;;31.17;;
5674;SDS011;2860;54.284;10.158;2023-04-23T02:22:22;37.42;;;31.38;;
5674;SDS011;2860;54.284;10.158;2023-04-23T02:24:49;39.17;;;32.17;;
5674;SDS011;2860;54.284;10.158;2023-04-23T02:27:15;41.70;;;34.15;;
5674;SDS011;2860;54.284;10.158;2023-04-23T02:29:41;45.50;;;35.95;;
5674;SDS011;2860;54.284;10.158;2023-04-23T02:32:07;43.17;;;35.50;;
5674;SDS011;2860;54.284;10.158;2023-04-23T02:34:32;49.72;;;36.10;;
5674;SDS011;2860;54.284;10.158;2023-04-23T02:36:58;43.40;;;35.10;;
5674;SDS011;2860;54.284;10.158;2023-04-23T02:39:23;38.97;;;34.65;;
5674;SDS011;2860;54.284;10.158;2023-04-23T02:41:49;47.67;;;37.35;;
5674;SDS011;2860;54.284;10.158;2023-04-23T02:44:15;46.13;;;37.60;;
5674;SDS011;2860;54.284;10.158;2023-04-23T02:46:40;46.33;;;38.67;;
5674;SDS011;2860;54.284;10.158;2023-04-23T02:49:06;43.42;;;36.10;;
5674;SDS011;2860;54.284;10.158;2023-04-23T02:51:31;46.60;;;38.35;;
5674;SDS011;2860;54.284;10.158;2023-04-23T02:53:57;44.92;;;36.78;;
5674;SDS011;2860;54.284;10.158;2023-04-23T02:56:23;41.83;;;34.53;;
5674;SDS011;2860;54.284;10.158;2023-04-23T02:58:48;44.13;;;34.70;;
5674;SDS011;2860;54.284;10.158;2023-04-23T03:01:14;43.22;;;32.85;;
5674;SDS011;2860;54.284;10.158;2023-04-23T03:03:40;42.25;;;31.60;;
5674;SDS011;2860;54.284;10.158;2023-04-23T03:06:06;42.65;;;30.98;;
5674;SDS011;2860;54.284;10.158;2023-04-23T03:08:32;40.78;;;29.60;;
5674;SDS011;2860;54.284;10.158;2023-04-23T03:10:57;39.35;;;30.15;;
5674;SDS011;2860;54.284;10.158;2023-04-23T03:13:23;33.45;;;26.55;;
5674;SDS011;2860;54.284;10.158;2023-04-23T03:15:50;34.33;;;27.67;;
5674;SDS011;2860;54.284;10.158;2023-04-23T03:18:16;37.78;;;26.98;;
5674;SDS011;2860;54.284;10.158;2023-04-23T03:20:42;40.58;;;29.20;;
5674;SDS011;2860;54.284;10.158;2023-04-23T03:23:08;38.92;;;30.23;;
5674;SDS011;2860;54.284;10.158;2023-04-23T03:25:34;32.35;;;27.25;;
5674;SDS011;2860;54.284;10.158;2023-04-23T03:27:59;35.03;;;27.60;;
5674;SDS011;2860;54.284;10.158;2023-04-23T03:30:26;36.50;;;26.55;;
5674;SDS011;2860;54.284;10.158;2023-04-23T03:32:53;30.35;;;22.42;;
5674;SDS011;2860;54.284;10.158;2023-04-23T03:35:21;29.95;;;24.10;;
5674;SDS011;2860;54.284;10.158;2023-04-23T03:37:47;30.27;;;22.45;;
5674;SDS011;2860;54.284;10.158;2023-04-23T03:40:12;25.88;;;20.70;;
5674;SDS011;2860;54.284;10.158;2023-04-23T03:42:38;26.35;;;20.25;;
5674;SDS011;2860;54.284;10.158;2023-04-23T03:45:04;23.77;;;18.50;;
5674;SDS011;2860;54.284;10.158;2023-04-23T03:47:30;21.75;;;16.52;;
5674;SDS011;2860;54.284;10.158;2023-04-23T03:49:55;18.33;;;14.63;;
5674;SDS011;2860;54.284;10.158;2023-04-23T03:52:21;14.30;;;12.05;;
5674;SDS011;2860;54.284;10.158;2023-04-23T03:54:47;17.73;;;13.75;;
5674;SDS011;2860;54.284;10.158;2023-04-23T03:57:12;16.35;;;12.77;;
5674;SDS011;2860;54.284;10.158;2023-04-23T03:59:38;16.00;;;12.13;;
5674;SDS011;2860;54.284;10.158;2023-04-23T04:02:03;13.88;;;11.75;;
5674;SDS011;2860;54.284;10.158;2023-04-23T04:04:30;12.07;;;10.80;;
5674;SDS011;2860;54.284;10.158;2023-04-23T04:06:56;13.93;;;10.93;;
5674;SDS011;2860;54.284;10.158;2023-04-23T04:09:22;12.98;;;9.95;;
5674;SDS011;2860;54.284;10.158;2023-04-23T04:11:47;11.07;;;9.93;;
5674;SDS011;2860;54.284;10.158;2023-04-23T04:14:13;11.68;;;9.93;;
5674;SDS011;2860;54.284;10.158;2023-04-23T04:16:39;11.88;;;9.40;;
5674;SDS011;2860;54.284;10.158;2023-04-23T04:19:04;8.98;;;8.25;;
5674;SDS011;2860;54.284;10.158;2023-04-23T04:21:30;11.15;;;8.40;;
5674;SDS011;2860;54.284;10.158;2023-04-23T04:23:57;10.48;;;9.38;;
5674;SDS011;2860;54.284;10.158;2023-04-23T04:26:25;11.80;;;8.85;;
5674;SDS011;2860;54.284;10.158;2023-04-23T04:28:51;9.63;;;8.75;;
5674;SDS011;2860;54.284;10.158;2023-04-23T04:31:17;7.63;;;7.03;;
5674;SDS011;2860;54.284;10.158;2023-04-23T04:33:44;8.90;;;8.20;;
5674;SDS011;2860;54.284;10.158;2023-04-23T04:36:10;9.55;;;8.57;;
5674;SDS011;2860;54.284;10.158;2023-04-23T04:38:37;9.38;;;7.93;;
5674;SDS011;2860;54.284;10.158;2023-04-23T04:41:03;8.23;;;7.53;;
5674;SDS011;2860;54.284;10.158;2023-04-23T04:43:29;10.07;;;7.72;;
5674;SDS011;2860;54.284;10.158;2023-04-23T04:45:56;8.88;;;8.07;;
5674;SDS011;2860;54.284;10.158;2023-04-23T04:48:23;9.02;;;7.40;;
5674;SDS011;2860;54.284;10.158;2023-04-23T04:50:48;8.00;;;7.30;;
5674;SDS011;2860;54.284;10.158;2023-04-23T04:53:14;7.88;;;7.13;;
5674;SDS011;2860;54.284;10.158;2023-04-23T04:55:40;8.48;;;7.70;;
5674;SDS011;2860;54.284;10.158;2023-04-23T04:58:05;8.15;;;6.85;;
5674;SDS011;2860;54.284;10.158;2023-04-23T05:00:31;7.75;;;7.15;;
5674;SDS011;2860;54.284;10.158;2023-04-23T05:02:57;8.65;;;7.82;;
5674;SDS011;2860;54.284;10.158;2023-04-23T05:05:23;7.90;;;7.35;;
5674;SDS011;2860;54.284;10.158;2023-04-23T05:07:50;8.25;;;7.20;;
5674;SDS011;2860;54.284;10.158;2023-04-23T05:10:18;7.07;;;6.53;;
5674;SDS011;2860;54.284;10.158;2023-04-23T05:12:44;7.35;;;6.63;;
5674;SDS011;2860;54.284;10.158;2023-04-23T05:15:10;6.93;;;6.57;;
5674;SDS011;2860;54.284;10.158;2023-04-23T05:17:40;6.70;;;6.20;;
5674;SDS011;2860;54.284;10.158;2023-04-23T05:20:06;7.90;;;6.35;;
5674;SDS011;2860;54.284;10.158;2023-04-23T05:22:36;7.40;;;6.70;;
5674;SDS011;2860;54.284;10.158;2023-04-23T05:25:03;6.47;;;5.82;;
5674;SDS011;2860;54.284;10.158;2023-04-23T05:27:30;6.55;;;6.13;;
5674;SDS011;2860;54.284;10.158;2023-04-23T05:29:55;7.10;;;6.60;;
5674;SDS011;2860;54.284;10.158;2023-04-23T05:32:21;6.97;;;6.63;;
5674;SDS011;2860;54.284;10.158;2023-04-23T05:34:47;7.93;;;7.07;;
5674;SDS011;2860;54.284;10.158;2023-04-23T05:37:12;6.35;;;5.75;;
5674;SDS011;2860;54.284;10.158;2023-04-23T05:39:38;6.75;;;6.05;;
5674;SDS011;2860;54.284;10.158;2023-04-23T05:42:03;6.75;;;6.15;;
5674;SDS011;2860;54.284;10.158;2023-04-23T05:44:29;8.10;;;7.40;;
5674;SDS011;2860;54.284;10.158;2023-04-23T05:46:54;5.70;;;5.40;;
5674;SDS011;2860;54.284;10.158;2023-04-23T05:49:20;6.07;;;5.68;;
5674;SDS011;2860;54.284;10.158;2023-04-23T05:51:46;7.18;;;6.68;;
5674;SDS011;2860;54.284;10.158;2023-04-23T05:54:12;11.55;;;5.95;;
5674;SDS011;2860;54.284;10.158;2023-04-23T05:56:37;6.45;;;5.82;;
5674;SDS011;2860;54.284;10.158;2023-04-23T05:59:03;6.05;;;5.75;;
5674;SDS011;2860;54.284;10.158;2023-04-23T06:01:28;5.82;;;5.43;;
5674;SDS011;2860;54.284;10.158;2023-04-23T06:03:54;5.30;;;4.90;;
5674;SDS011;2860;54.284;10.158;2023-04-23T06:06:19;5.40;;;4.88;;
5674;SDS011;2860;54.284;10.158;2023-04-23T06:08:45;5.97;;;5.50;;
5674;SDS011;2860;54.284;10.158;2023-04-23T06:11:10;4.93;;;4.68;;
5674;SDS011;2860;54.284;10.158;2023-04-23T06:13:36;5.43;;;5.05;;
5674;SDS011;2860;54.284;10.158;2023-04-23T06:16:05;4.95;;;4.72;;
5674;SDS011;2860;54.284;10.158;2023-04-23T06:18:31;6.05;;;4.85;;
5674;SDS011;2860;54.284;10.158;2023-04-23T06:20:57;5.03;;;4.68;;
5674;SDS011;2860;54.284;10.158;2023-04-23T06:23:25;4.65;;;4.45;;
5674;SDS011;2860;54.284;10.158;2023-04-23T06:25:51;5.38;;;5.05;;
5674;SDS011;2860;54.284;10.158;2023-04-23T06:28:16;5.60;;;5.10;;
5674;SDS011;2860;54.284;10.158;2023-04-23T06:30:42;4.57;;;4.25;;
5674;SDS011;2860;54.284;10.158;2023-04-23T06:33:07;4.47;;;4.30;;
5674;SDS011;2860;54.284;10.158;2023-04-23T06:35:33;5.20;;;4.60;;
5674;SDS011;2860;54.284;10.158;2023-04-23T06:37:59;5.38;;;5.18;;
5674;SDS011;2860;54.284;10.158;2023-04-23T06:40:25;5.03;;;4.32;;
5674;SDS011;2860;54.284;10.158;2023-04-23T06:42:50;4.95;;;4.55;;
5674;SDS011;2860;54.284;10.158;2023-04-23T06:45:16;7.25;;;5.97;;
5674;SDS011;2860;54.284;10.158;2023-04-23T06:47:42;4.85;;;4.53;;
5674;SDS011;2860;54.284;10.158;2023-04-23T06:50:07;6.43;;;5.90;;
5674;SDS011;2860;54.284;10.158;2023-04-23T06:52:33;4.88;;;4.57;;
5674;SDS011;2860;54.284;10.158;2023-04-23T06:54:59;5.05;;;4.75;;
5674;SDS011;2860;54.284;10.158;2023-04-23T06:57:25;6.55;;;5.32;;
5674;SDS011;2860;54.284;10.158;2023-04-23T06:59:50;4.72;;;4.43;;
5674;SDS011;2860;54.284;10.158;2023-04-23T07:02:16;5.13;;;4.78;;
5674;SDS011;2860;54.284;10.158;2023-04-23T07:04:41;5.60;;;5.20;;
5674;SDS011;2860;54.284;10.158;2023-04-23T07:07:07;5.60;;;5.18;;
5674;SDS011;2860;54.284;10.158;2023-04-23T07:09:32;6.50;;;6.03;;
5674;SDS011;2860;54.284;10.158;2023-04-23T07:11:58;5.28;;;4.97;;
5674;SDS011;2860;54.284;10.158;2023-04-23T07:14:23;6.13;;;5.78;;
5674;SDS011;2860;54.284;10.158;2023-04-23T07:16:49;6.05;;;5.75;;
5674;SDS011;2860;54.284;10.158;2023-04-23T07:19:15;6.57;;;6.07;;
5674;SDS011;2860;54.284;10.158;2023-04-23T07:21:41;6.35;;;5.93;;
5674;SDS011;2860;54.284;10.158;2023-04-23T07:24:06;5.38;;;4.93;;
5674;SDS011;2860;54.284;10.158;2023-04-23T07:26:32;5.50;;;5.20;;
5674;SDS011;2860;54.284;10.158;2023-04-23T07:28:58;5.25;;;5.05;;
5674;SDS011;2860;54.284;10.158;2023-04-23T07:31:25;6.30;;;5.90;;
5674;SDS011;2860;54.284;10.158;2023-04-23T07:33:51;6.10;;;5.70;;
5674;SDS011;2860;54.284;10.158;2023-04-23T07:36:16;6.45;;;5.80;;
5674;SDS011;2860;54.284;10.158;2023-04-23T07:38:42;6.88;;;6.45;;
5674;SDS011;2860;54.284;10.158;2023-04-23T07:41:08;6.47;;;6.20;;
5674;SDS011;2860;54.284;10.158;2023-04-23T07:43:34;6.22;;;5.78;;
5674;SDS011;2860;54.284;10.158;2023-04-23T07:45:59;6.00;;;5.60;;
5674;SDS011;2860;54.284;10.158;2023-04-23T07:48:25;6.45;;;5.85;;
5674;SDS011;2860;54.284;10.158;2023-04-23T07:50:50;6.95;;;6.47;;
5674;SDS011;2860;54.284;10.158;2023-04-23T07:53:16;7.15;;;6.85;;
5674;SDS011;2860;54.284;10.158;2023-04-23T07:55:42;7.22;;;6.82;;
5674;SDS011;2860;54.284;10.158;2023-04-23T07:58:07;8.88;;;8.25;;
5674;SDS011;2860;54.284;10.158;2023-04-23T08:00:33;8.50;;;7.82;;
5674;SDS011;2860;54.284;10.158;2023-04-23T08:02:59;9.82;;;9.13;;
5674;SDS011;2860;54.284;10.158;2023-04-23T08:05:25;8.55;;;7.93;;
5674;SDS011;2860;54.284;10.158;2023-04-23T08:07:50;8.88;;;8.18;;
5674;SDS011;2860;54.284;10.158;2023-04-23T08:10:16;9.23;;;8.52;;
5674;SDS011;2860;54.284;10.158;2023-04-23T08:12:41;10.25;;;9.50;;
5674;SDS011;2860;54.284;10.158;2023-04-23T08:15:08;10.80;;;9.90;;
5674;SDS011;2860;54.284;10.158;2023-04-23T08:17:34;11.57;;;10.48;;
5674;SDS011;2860;54.284;10.158;2023-04-23T08:20:00;12.52;;;10.90;;
5674;SDS011;2860;54.284;10.158;2023-04-23T08:22:27;11.15;;;10.13;;
5674;SDS011;2860;54.284;10.158;2023-04-23T08:24:53;11.25;;;10.20;;
5674;SDS011;2860;54.284;10.158;2023-04-23T08:27:18;10.85;;;10.20;;
5674;SDS011;2860;54.284;10.158;2023-04-23T08:29:44;11.25;;;10.55;;
5674;SDS011;2860;54.284;10.158;2023-04-23T08:32:10;10.82;;;9.25;;
5674;SDS011;2860;54.284;10.158;2023-04-23T08:34:35;10.77;;;9.95;;
5674;SDS011;2860;54.284;10.158;2023-04-23T08:37:01;18.33;;;9.90;;
5674;SDS011;2860;54.284;10.158;2023-04-23T08:39:27;8.95;;;8.18;;
5674;SDS011;2860;54.284;10.158;2023-04-23T08:41:54;8.57;;;7.90;;
5674;SDS011;2860;54.284;10.158;2023-04-23T08:44:22;8.32;;;7.55;;
5674;SDS011;2860;54.284;10.158;2023-04-23T08:46:49;8.40;;;7.88;;
5674;SDS011;2860;54.284;10.158;2023-04-23T08:49:17;8.50;;;7.70;;
5674;SDS011;2860;54.284;10.158;2023-04-23T08:51:47;8.55;;;7.72;;
5674;SDS011;2860;54.284;10.158;2023-04-23T08:54:18;9.05;;;8.35;;
5674;SDS011;2860;54.284;10.158;2023-04-23T08:56:49;8.20;;;7.60;;
5674;SDS011;2860;54.284;10.158;2023-04-23T08:59:16;8.95;;;8.25;;
5674;SDS011;2860;54.284;10.158;2023-04-23T09:01:42;8.25;;;7.47;;
5674;SDS011;2860;54.284;10.158;2023-04-23T09:04:08;8.88;;;8.27;;
5674;SDS011;2860;54.284;10.158;2023-04-23T09:06:35;9.05;;;8.20;;
5674;SDS011;2860;54.284;10.158;2023-04-23T09:09:00;8.55;;;7.85;;
5674;SDS011;2860;54.284;10.158;2023-04-23T09:11:27;8.55;;;7.95;;
5674;SDS011;2860;54.284;10.158;2023-04-23T09:13:55;9.27;;;8.57;;
5674;SDS011;2860;54.284;10.158;2023-04-23T09:16:20;9.43;;;8.73;;
5674;SDS011;2860;54.284;10.158;2023-04-23T09:18:46;11.82;;;8.52;;
5674;SDS011;2860;54.284;10.158;2023-04-23T09:21:13;11.23;;;10.25;;
5674;SDS011;2860;54.284;10.158;2023-04-23T09:23:39;10.02;;;9.23;;
5674;SDS011;2860;54.284;10.158;2023-04-23T09:26:05;9.25;;;8.65;;
5674;SDS011;2860;54.284;10.158;2023-04-23T09:28:34;9.15;;;8.35;;
5674;SDS011;2860;54.284;10.158;2023-04-23T09:31:00;10.98;;;8.18;;
5674;SDS011;2860;54.284;10.158;2023-04-23T09:33:26;8.88;;;8.07;;
5674;SDS011;2860;54.284;10.158;2023-04-23T09:35:52;9.95;;;9.25;;
5674;SDS011;2860;54.284;10.158;2023-04-23T09:38:18;9.63;;;8.88;;
5674;SDS011;2860;54.284;10.158;2023-04-23T09:40:44;10.48;;;9.57;;
5674;SDS011;2860;54.284;10.158;2023-04-23T09:43:09;8.95;;;8.25;;
5674;SDS011;2860;54.284;10.158;2023-04-23T09:45:35;8.55;;;8.05;;
5674;SDS011;2860;54.284;10.158;2023-04-23T09:48:01;10.20;;;9.07;;
5674;SDS011;2860;54.284;10.158;2023-04-23T09:50:37;8.65;;;7.93;;
5674;SDS011;2860;54.284;10.158;2023-04-23T09:53:04;9.80;;;9.13;;
5674;SDS011;2860;54.284;10.158;2023-04-23T09:55:31;9.93;;;9.20;;
5674;SDS011;2860;54.284;10.158;2023-04-23T09:58:03;10.50;;;9.65;;
5674;SDS011;2860;54.284;10.158;2023-04-23T10:00:36;10.15;;;9.40;;
5674;SDS011;2860;54.284;10.158;2023-04-23T10:03:03;10.43;;;9.52;;
5674;SDS011;2860;54.284;10.158;2023-04-23T10:05:30;9.52;;;8.93;;
5674;SDS011;2860;54.284;10.158;2023-04-23T10:07:56;10.32;;;9.60;;
5674;SDS011;2860;54.284;10.158;2023-04-23T10:10:22;10.88;;;10.07;;
5674;SDS011;2860;54.284;10.158;2023-04-23T10:12:49;10.25;;;8.73;;
5674;SDS011;2860;54.284;10.158;2023-04-23T10:15:17;11.23;;;10.30;;
5674;SDS011;2860;54.284;10.158;2023-04-23T10:17:43;11.32;;;10.27;;
5674;SDS011;2860;54.284;10.158;2023-04-23T10:20:10;10.50;;;9.48;;
5674;SDS011;2860;54.284;10.158;2023-04-23T10:22:37;10.25;;;9.55;;
5674;SDS011;2860;54.284;10.158;2023-04-23T10:25:07;8.93;;;8.43;;
5674;SDS011;2860;54.284;10.158;2023-04-23T10:27:36;10.20;;;9.40;;
5674;SDS011;2860;54.284;10.158;2023-04-23T10:30:07;11.40;;;10.35;;
5674;SDS011;2860;54.284;10.158;2023-04-23T10:32:33;10.80;;;9.80;;
5674;SDS011;2860;54.284;10.158;2023-04-23T10:34:59;10.18;;;9.32;;
5674;SDS011;2860;54.284;10.158;2023-04-23T10:37:25;10.90;;;10.13;;
5674;SDS011;2860;54.284;10.158;2023-04-23T10:39:55;10.88;;;9.82;;
5674;SDS011;2860;54.284;10.158;2023-04-23T10:42:28;10.07;;;9.45;;
5674;SDS011;2860;54.284;10.158;2023-04-23T10:44:55;11.07;;;10.02;;
5674;SDS011;2860;54.284;10.158;2023-04-23T10:47:22;10.70;;;9.65;;
5674;SDS011;2860;54.284;10.158;2023-04-23T10:49:48;9.10;;;8.60;;
5674;SDS011;2860;54.284;10.158;2023-04-23T10:52:14;9.32;;;8.82;;
5674;SDS011;2860;54.284;10.158;2023-04-23T10:54:48;10.65;;;9.90;;
5674;SDS011;2860;54.284;10.158;2023-04-23T10:57:20;10.43;;;9.52;;
5674;SDS011;2860;54.284;10.158;2023-04-23T10:59:52;9.77;;;9.15;;
5674;SDS011;2860;54.284;10.158;2023-04-23T11:02:19;8.50;;;7.80;;
5674;SDS011;2860;54.284;10.158;2023-04-23T11:04:54;10.60;;;9.63;;
5674;SDS011;2860;54.284;10.158;2023-04-23T11:07:24;8.23;;;7.60;;
5674;SDS011;2860;54.284;10.158;2023-04-23T11:09:59;9.57;;;8.98;;
5674;SDS011;2860;54.284;10.158;2023-04-23T11:12:38;9.52;;;8.90;;
5674;SDS011;2860;54.284;10.158;2023-04-23T11:15:11;9.63;;;9.00;;
5674;SDS011;2860;54.284;10.158;2023-04-23T11:22:35;9.55;;;8.73;;
5674;SDS011;2860;54.284;10.158;2023-04-23T11:25:02;8.30;;;7.70;;
5674;SDS011;2860;54.284;10.158;2023-04-23T11:27:29;8.75;;;8.15;;
5674;SDS011;2860;54.284;10.158;2023-04-23T11:29:56;7.47;;;7.00;;
5674;SDS011;2860;54.284;10.158;2023-04-23T11:32:21;8.43;;;7.85;;
5674;SDS011;2860;54.284;10.158;2023-04-23T11:34:48;8.32;;;7.82;;
5674;SDS011;2860;54.284;10.158;2023-04-23T11:37:15;8.13;;;7.63;;
5674;SDS011;2860;54.284;10.158;2023-04-23T11:39:42;8.60;;;6.90;;
5674;SDS011;2860;54.284;10.158;2023-04-23T11:42:12;7.68;;;6.95;;
5674;SDS011;2860;54.284;10.158;2023-04-23T11:44:38;8.55;;;7.95;;
5674;SDS011;2860;54.284;10.158;2023-04-23T11:47:09;8.23;;;7.72;;
5674;SDS011;2860;54.284;10.158;2023-04-23T11:49:36;7.85;;;7.25;;
5674;SDS011;2860;54.284;10.158;2023-04-23T11:52:03;9.32;;;8.57;;
5674;SDS011;2860;54.284;10.158;2023-04-23T11:54:29;8.70;;;8.20;;
5674;SDS011;2860;54.284;10.158;2023-04-23T11:56:55;9.43;;;8.73;;
5674;SDS011;2860;54.284;10.158;2023-04-23T11:59:22;8.90;;;8.35;;
5674;SDS011;2860;54.284;10.158;2023-04-23T12:01:48;8.32;;;7.93;;
5674;SDS011;2860;54.284;10.158;2023-04-23T12:04:19;7.47;;;7.03;;
5674;SDS011;2860;54.284;10.158;2023-04-23T12:06:46;8.40;;;7.90;;
5674;SDS011;2860;54.284;10.158;2023-04-23T12:09:13;8.43;;;7.78;;
5674;SDS011;2860;54.284;10.158;2023-04-23T12:11:41;8.25;;;7.65;;
5674;SDS011;2860;54.284;10.158;2023-04-23T12:14:08;7.90;;;7.20;;
5674;SDS011;2860;54.284;10.158;2023-04-23T12:16:35;8.88;;;8.25;;
5674;SDS011;2860;54.284;10.158;2023-04-23T12:19:03;9.13;;;8.63;;
5674;SDS011;2860;54.284;10.158;2023-04-23T12:21:31;8.80;;;8.20;;
5674;SDS011;2860;54.284;10.158;2023-04-23T12:23:56;9.13;;;8.57;;
5674;SDS011;2860;54.284;10.158;2023-04-23T12:26:23;9.13;;;8.35;;
5674;SDS011;2860;54.284;10.158;2023-04-23T12:28:50;9.32;;;8.63;;
5674;SDS011;2860;54.284;10.158;2023-04-23T12:31:20;13.95;;;12.73;;
5674;SDS011;2860;54.284;10.158;2023-04-23T12:33:46;12.32;;;11.32;;
5674;SDS011;2860;54.284;10.158;2023-04-23T12:36:17;10.75;;;9.85;;
5674;SDS011;2860;54.284;10.158;2023-04-23T12:38:42;10.68;;;9.98;;
5674;SDS011;2860;54.284;10.158;2023-04-23T12:41:08;11.30;;;10.02;;
5674;SDS011;2860;54.284;10.158;2023-04-23T12:43:34;10.65;;;9.85;;
5674;SDS011;2860;54.284;10.158;2023-04-23T12:46:00;10.38;;;9.57;;
5674;SDS011;2860;54.284;10.158;2023-04-23T12:48:25;11.27;;;10.45;;
5674;SDS011;2860;54.284;10.158;2023-04-23T12:50:51;10.77;;;9.98;;
5674;SDS011;2860;54.284;10.158;2023-04-23T12:53:17;10.90;;;10.25;;
5674;SDS011;2860;54.284;10.158;2023-04-23T12:55:42;12.45;;;11.55;;
5674;SDS011;2860;54.284;10.158;2023-04-23T12:58:09;11.80;;;10.82;;
5674;SDS011;2860;54.284;10.158;2023-04-23T13:00:35;12.30;;;11.30;;
5674;SDS011;2860;54.284;10.158;2023-04-23T13:03:00;12.55;;;11.65;;
5674;SDS011;2860;54.284;10.158;2023-04-23T13:05:26;11.45;;;10.65;;
5674;SDS011;2860;54.284;10.158;2023-04-23T13:07:52;11.35;;;10.55;;
5674;SDS011;2860;54.284;10.158;2023-04-23T13:10:18;9.73;;;9.02;;
5674;SDS011;2860;54.284;10.158;2023-04-23T13:12:43;9.45;;;8.85;;
5674;SDS011;2860;54.284;10.158;2023-04-23T13:15:09;11.57;;;10.77;;
5674;SDS011;2860;54.284;10.158;2023-04-23T13:17:36;10.15;;;9.45;;
5674;SDS011;2860;54.284;10.158;2023-04-23T13:20:02;9.63;;;9.02;;
5674;SDS011;2860;54.284;10.158;2023-04-23T13:22:29;10.40;;;9.70;;
5674;SDS011;2860;54.284;10.158;2023-04-23T13:24:55;10.75;;;9.70;;
5674;SDS011;2860;54.284;10.158;2023-04-23T13:27:21;10.23;;;9.25;;
5674;SDS011;2860;54.284;10.158;2023-04-23T13:29:48;9.77;;;9.13;;
5674;SDS011;2860;54.284;10.158;2023-04-23T13:32:14;8.90;;;8.32;;
5674;SDS011;2860;54.284;10.158;2023-04-23T13:34:40;8.82;;;8.13;;
5674;SDS011;2860;54.284;10.158;2023-04-23T13:37:06;8.90;;;8.30;;
5674;SDS011;2860;54.284;10.158;2023-04-23T13:39:33;9.13;;;8.52;;
5674;SDS011;2860;54.284;10.158;2023-04-23T13:41:59;9.90;;;8.95;;
5674;SDS011;2860;54.284;10.158;2023-04-23T13:44:25;9.45;;;8.60;;
5674;SDS011;2860;54.284;10.158;2023-04-23T13:46:51;8.93;;;8.32;;
5674;SDS011;2860;54.284;10.158;2023-04-23T13:49:16;10.75;;;9.95;;
5674;SDS011;2860;54.284;10.158;2023-04-23T13:51:42;11.23;;;9.70;;
5674;SDS011;2860;54.284;10.158;2023-04-23T13:54:07;9.13;;;8.52;;
5674;SDS011;2860;54.284;10.158;2023-04-23T13:56:33;10.40;;;9.70;;
5674;SDS011;2860;54.284;10.158;2023-04-23T13:58:58;9.52;;;8.90;;
5674;SDS011;2860;54.284;10.158;2023-04-23T14:01:26;10.43;;;9.00;;
5674;SDS011;2860;54.284;10.158;2023-04-23T14:03:52;11.18;;;10.18;;
5674;SDS011;2860;54.284;10.158;2023-04-23T14:06:18;10.43;;;9.68;;
5674;SDS011;2860;54.284;10.158;2023-04-23T14:08:43;9.23;;;8.40;;
5674;SDS011;2860;54.284;10.158;2023-04-23T14:11:09;10.88;;;9.70;;
5674;SDS011;2860;54.284;10.158;2023-04-23T14:13:34;9.60;;;8.80;;
5674;SDS011;2860;54.284;10.158;2023-04-23T14:16:01;8.80;;;8.30;;
5674;SDS011;2860;54.284;10.158;2023-04-23T14:18:26;9.73;;;8.85;;
5674;SDS011;2860;54.284;10.158;2023-04-23T14:20:52;9.07;;;8.48;;
5674;SDS011;2860;54.284;10.158;2023-04-23T14:25:46;9.57;;;8.80;;
5674;SDS011;2860;54.284;10.158;2023-04-23T14:28:49;8.65;;;8.00;;
5674;SDS011;2860;54.284;10.158;2023-04-23T14:31:10;9.15;;;8.60;;
5674;SDS011;2860;54.284;10.158;2023-04-23T14:33:36;10.70;;;9.90;;
5674;SDS011;2860;54.284;10.158;2023-04-23T14:36:01;10.93;;;10.10;;
5674;SDS011;2860;54.284;10.158;2023-04-23T14:38:27;9.82;;;9.13;;
5674;SDS011;2860;54.284;10.158;2023-04-23T14:40:53;10.05;;;9.35;;
5674;SDS011;2860;54.284;10.158;2023-04-23T14:43:19;9.77;;;8.90;;
5674;SDS011;2860;54.284;10.158;2023-04-23T14:45:45;10.48;;;9.77;;
5674;SDS011;2860;54.284;10.158;2023-04-23T14:48:11;10.35;;;9.68;;
5674;SDS011;2860;54.284;10.158;2023-04-23T14:50:36;11.02;;;10.02;;
5674;SDS011;2860;54.284;10.158;2023-04-23T14:53:02;10.35;;;9.45;;